Date,TemperatureHighF,TemperatureAvgF,TemperatureLowF,DewpointHighF,DewpointAvgF,DewpointLowF,HumidityHigh,HumidityAvg,HumidityLow,PressureMaxIn,PressureMinIn,WindSpeedMaxMPH,WindSpeedAvgMPH,GustSpeedMaxMPH,PrecipitationSumIn
2013-1-1,29.1,22.0,13.8,17.6,7.9,-0.4,67,54,42,30.14,29.99,26,8,26,0.04
2013-1-2,25.0,19.6,11.7,14.9,10.0,1.2,75,66,58,30.16,30.05,30,5,30,0.00
2013-1-3,28.4,21.8,13.5,23.4,14.2,3.5,83,72,61,30.14,30.02,29,8,29,0.00
2013-1-4,31.5,26.5,22.8,21.4,16.3,12.3,77,65,51,30.14,29.99,41,10,41,0.00
2013-1-5,34.3,25.4,15.8,30.2,19.4,12.0,90,78,64,30.25,30.02,23,7,23,0.00
2013-1-6,34.5,32.8,31.3,31.6,29.0,24.0,90,86,74,30.22,29.90,26,6,26,0.00
2013-1-7,36.1,30.6,27.0,24.0,21.0,17.8,77,67,52,30.34,30.14,34,7,34,0.04
2013-1-8,35.8,26.8,20.5,25.4,20.0,16.0,86,76,61,30.22,30.14,17,4,17,0.04
2013-1-9,47.1,35.1,22.8,32.9,24.4,17.6,90,67,40,30.40,30.02,38,10,38,0.04
2013-1-10,46.6,33.6,26.6,33.8,24.5,18.0,85,70,47,30.55,30.16,21,5,21,0.04
2013-1-11,54.9,41.6,34.2,54.1,39.5,30.0,98,92,84,30.16,29.75,26,5,26,0.55
2013-1-12,59.0,48.9,43.9,50.1,45.7,42.1,98,89,66,29.93,29.81,21,6,21,0.00
2013-1-13,49.5,39.4,36.3,47.8,38.4,35.7,98,96,91,29.93,29.72,31,9,31,0.55
2013-1-14,24.1,21.0,16.7,11.8,10.5,8.9,71,64,57,30.40,30.34,12,2,12,0.00
2013-1-15,33.3,21.8,13.3,22.8,12.2,7.1,81,67,52,30.40,30.14,12,1,12,0.00
2013-1-16,39.4,29.0,19.8,24.2,15.9,12.9,81,60,37,30.14,29.78,31,7,31,0.00
2013-1-17,38.1,29.8,18.3,26.2,16.1,0.9,76,57,42,30.28,29.93,53,14,53,0.00
2013-1-18,33.4,24.3,13.3,18.3,9.9,0.5,65,54,44,30.40,29.96,34,10,34,0.00
2013-1-19,47.3,40.1,33.1,31.3,24.6,18.3,64,54,45,29.96,29.57,42,12,42,0.00
2013-1-20,43.0,20.4,15.1,30.7,3.6,-0.7,62,47,43,30.14,29.54,48,16,48,0.00
2013-1-21,17.8,12.2,2.7,7.8,-1.4,-12.6,74,54,48,30.11,29.93,38,10,38,0.00
2013-1-22,7.0,2.2,-3.1,-8.6,-13.0,-17.9,48,48,48,30.22,30.08,30,5,30,0.00
2013-1-23,16.9,9.4,1.2,4.8,-4.8,-13.9,63,52,48,30.22,30.05,20,3,20,0.00
2013-1-24,24.4,13.3,7.7,5.8,-2.1,-8.6,61,50,39,30.52,30.08,28,9,30,0.00
2013-1-25,20.3,16.7,12.6,13.0,6.2,-6.2,80,64,42,30.46,29.99,17,3,17,0.00
2013-1-26,27.5,21.2,17.4,15.6,11.1,4.8,83,66,46,30.40,30.02,25,7,25,0.00
2013-1-27,28.8,21.4,12.0,26.2,12.9,6.2,90,70,51,30.43,30.11,26,5,26,0.00
2013-1-28,43.2,35.7,28.8,42.6,34.7,26.2,98,96,90,30.11,29.84,22,4,22,0.43
2013-1-29,54.9,44.0,34.0,54.3,43.5,33.5,98,98,98,30.02,29.49,30,5,30,0.71
2013-1-30,58.3,48.9,32.7,57.7,48.0,28.0,98,97,83,29.49,29.13,39,9,39,0.47
2013-1-31,32.5,21.7,14.4,28.3,11.7,4.8,86,66,50,29.84,29.22,56,16,56,0.00